createdAt,value
2023-01-01T00:00:37.530Z,15.70
2023-01-01T00:03:04.096Z,15.60
2023-01-01T00:05:30.672Z,15.50
2023-01-01T00:08:04.279Z,15.50
2023-01-01T00:10:31.349Z,15.50
2023-01-01T00:12:58.317Z,15.50
2023-01-01T00:15:25.885Z,15.50
2023-01-01T00:17:52.749Z,15.50
2023-01-01T00:20:19.353Z,15.60
2023-01-01T00:22:54.986Z,15.60
2023-01-01T00:25:22.360Z,15.60
2023-01-01T00:27:49.028Z,15.60
2023-01-01T00:30:15.591Z,15.60
2023-01-01T00:32:42.169Z,15.50
2023-01-01T00:35:09.026Z,15.60
2023-01-01T00:37:35.889Z,15.70
2023-01-01T00:40:02.617Z,15.70
2023-01-01T00:42:29.190Z,15.70
2023-01-01T00:44:55.711Z,15.70
2023-01-01T00:47:22.331Z,15.70
2023-01-01T00:49:48.872Z,15.70
2023-01-01T00:52:15.469Z,15.60
2023-01-01T00:54:42.042Z,15.60
2023-01-01T00:57:08.598Z,15.70
2023-01-01T00:59:35.142Z,15.80
2023-01-01T01:02:01.988Z,15.70
2023-01-01T01:04:28.724Z,15.80
2023-01-01T01:06:55.331Z,15.70
2023-01-01T01:09:21.965Z,15.70
2023-01-01T01:11:48.482Z,15.60
2023-01-01T01:14:15.094Z,15.60
2023-01-01T01:16:41.758Z,15.70
2023-01-01T01:21:38.795Z,15.60
2023-01-01T01:24:05.464Z,15.60
2023-01-01T01:26:32.852Z,15.50
2023-01-01T01:28:59.904Z,15.40
2023-01-01T01:31:28.290Z,15.50
2023-01-01T01:33:54.938Z,15.50
2023-01-01T01:36:21.912Z,15.50
2023-01-01T01:38:48.496Z,15.40
2023-01-01T01:41:26.859Z,15.30
2023-01-01T01:44:01.347Z,15.30
2023-01-01T01:46:31.003Z,15.30
2023-01-01T01:48:59.772Z,15.30
2023-01-01T01:51:34.724Z,15.20
2023-01-01T01:54:03.260Z,15.40
2023-01-01T01:56:32.354Z,15.40
2023-01-01T01:58:58.918Z,15.30
2023-01-01T02:01:25.986Z,15.30
2023-01-01T02:03:57.625Z,15.30
2023-01-01T02:06:25.159Z,15.30
2023-01-01T02:08:52.140Z,15.30
2023-01-01T02:11:21.955Z,15.20
2023-01-01T02:13:49.409Z,15.20
2023-01-01T02:16:34.630Z,15.20
2023-01-01T02:19:23.539Z,15.20
2023-01-01T02:22:08.831Z,15.10
2023-01-01T02:24:35.458Z,15.20
2023-01-01T02:27:05.013Z,15.30
2023-01-01T02:29:36.032Z,15.30
2023-01-01T02:32:15.443Z,15.10
2023-01-01T02:34:44.923Z,15.10
2023-01-01T02:37:13.174Z,15.20
2023-01-01T02:39:46.942Z,15.20
2023-01-01T02:42:15.580Z,15.20
2023-01-01T02:44:44.685Z,15.20
2023-01-01T02:47:14.143Z,15.10
2023-01-01T02:49:44.982Z,15.10
2023-01-01T02:52:16.235Z,15.10
2023-01-01T02:54:52.010Z,15.00
2023-01-01T02:57:57.320Z,14.90
2023-01-01T03:00:31.688Z,15.00
2023-01-01T03:03:16.549Z,15.00
2023-01-01T03:06:17.190Z,14.90
2023-01-01T03:08:48.241Z,15.00
2023-01-01T03:11:18.282Z,15.00
2023-01-01T03:13:44.852Z,14.90
2023-01-01T03:16:22.126Z,14.90
2023-01-01T03:19:10.742Z,14.80
2023-01-01T03:21:49.726Z,14.80
2023-01-01T03:24:36.500Z,14.90
2023-01-01T03:27:18.799Z,14.90
2023-01-01T03:29:46.961Z,14.90
2023-01-01T03:32:16.613Z,14.80
2023-01-01T03:34:49.764Z,14.80
2023-01-01T03:37:20.408Z,14.90
2023-01-01T03:39:49.059Z,14.80
2023-01-01T03:42:19.593Z,14.80
2023-01-01T03:44:48.646Z,14.80
2023-01-01T03:47:15.521Z,14.90
2023-01-01T03:49:42.765Z,14.90
2023-01-01T03:52:15.704Z,14.90
2023-01-01T03:54:56.865Z,14.80
2023-01-01T03:57:31.473Z,14.80
2023-01-01T04:00:02.452Z,14.80
2023-01-01T04:02:32.474Z,14.80
2023-01-01T04:04:59.959Z,14.80
2023-01-01T04:07:26.878Z,14.80
2023-01-01T04:09:54.621Z,14.80
2023-01-01T04:12:21.456Z,14.80
2023-01-01T04:14:48.155Z,14.80
2023-01-01T04:17:14.936Z,14.80
2023-01-01T04:19:41.530Z,14.80
2023-01-01T04:22:08.214Z,14.80
2023-01-01T04:24:34.773Z,14.80
2023-01-01T04:27:01.364Z,14.80
2023-01-01T04:29:27.916Z,14.70
2023-01-01T04:31:54.557Z,14.70
2023-01-01T04:34:21.141Z,14.70
2023-01-01T04:36:47.767Z,14.70
2023-01-01T04:39:14.478Z,14.60
2023-01-01T04:41:41.070Z,14.60
2023-01-01T04:44:07.558Z,14.70
2023-01-01T04:46:34.169Z,14.70
2023-01-01T04:49:00.677Z,14.60
2023-01-01T04:51:27.306Z,14.70
2023-01-01T04:53:53.850Z,14.60
2023-01-01T04:56:21.784Z,14.60
2023-01-01T04:58:48.570Z,14.60
2023-01-01T05:01:19.739Z,14.60
2023-01-01T05:03:46.767Z,14.60
2023-01-01T05:06:13.800Z,14.70
2023-01-01T05:08:41.558Z,14.70
2023-01-01T05:11:11.640Z,14.70
2023-01-01T05:13:39.052Z,14.60
2023-01-01T05:16:06.781Z,14.60
2023-01-01T05:18:34.195Z,14.60
2023-01-01T05:21:04.905Z,14.60
2023-01-01T05:23:31.465Z,14.60
2023-01-01T05:25:58.068Z,14.60
2023-01-01T05:28:24.997Z,14.60
2023-01-01T05:30:52.086Z,14.60
2023-01-01T05:33:19.191Z,14.60
2023-01-01T05:35:46.036Z,14.60
2023-01-01T05:38:12.642Z,14.60
2023-01-01T05:40:40.055Z,14.60
2023-01-01T05:43:07.066Z,14.60
2023-01-01T05:45:33.907Z,14.70
2023-01-01T05:48:00.412Z,14.60
2023-01-01T05:50:26.958Z,14.60
2023-01-01T05:52:53.437Z,14.60
2023-01-01T05:55:20.016Z,14.60
2023-01-01T05:57:46.565Z,14.60
2023-01-01T06:00:13.496Z,14.60
2023-01-01T06:02:40.098Z,14.60
2023-01-01T06:05:06.816Z,14.60
2023-01-01T06:07:33.365Z,14.60
2023-01-01T06:10:00.012Z,14.60
2023-01-01T06:12:26.534Z,14.60
2023-01-01T06:14:53.099Z,14.60
2023-01-01T06:17:19.594Z,14.60
2023-01-01T06:19:46.239Z,14.60
2023-01-01T06:22:12.773Z,14.60
2023-01-01T06:24:39.585Z,14.60
2023-01-01T06:27:06.963Z,14.60
2023-01-01T06:29:33.613Z,14.60
2023-01-01T06:32:00.301Z,14.60
2023-01-01T06:34:26.944Z,14.60
2023-01-01T06:36:53.457Z,14.50
2023-01-01T06:39:20.037Z,14.50
2023-01-01T06:41:46.608Z,14.50
2023-01-01T06:44:13.128Z,14.40
2023-01-01T06:46:39.791Z,14.40
2023-01-01T06:49:07.701Z,14.40
2023-01-01T06:51:38.509Z,14.30
2023-01-01T06:54:05.398Z,14.30
2023-01-01T06:56:32.246Z,14.30
2023-01-01T06:58:59.230Z,14.30
2023-01-01T07:01:27.345Z,14.30
2023-01-01T07:03:55.281Z,14.30
2023-01-01T07:06:22.252Z,14.30
2023-01-01T07:08:48.813Z,14.30
2023-01-01T07:11:15.344Z,14.30
2023-01-01T07:13:41.959Z,14.30
2023-01-01T07:16:13.217Z,14.30
2023-01-01T07:18:40.275Z,14.20
2023-01-01T07:21:07.697Z,14.20
2023-01-01T07:23:35.079Z,14.30
2023-01-01T07:26:01.801Z,14.30
2023-01-01T07:28:28.443Z,14.30
2023-01-01T07:30:55.149Z,14.40
2023-01-01T07:33:22.885Z,14.40
2023-01-01T07:35:49.439Z,14.40
2023-01-01T07:38:16.157Z,14.40
2023-01-01T07:40:42.825Z,14.40
2023-01-01T07:43:09.742Z,14.50
2023-01-01T07:45:36.378Z,14.50
2023-01-01T07:48:03.096Z,14.50
2023-01-01T07:50:30.969Z,14.50
2023-01-01T07:52:57.545Z,14.50
2023-01-01T07:55:24.232Z,14.50
2023-01-01T07:57:50.791Z,14.50
2023-01-01T08:00:18.791Z,14.50
2023-01-01T08:02:45.966Z,14.50
2023-01-01T08:05:12.595Z,14.50
2023-01-01T08:07:39.169Z,14.50
2023-01-01T08:10:06.387Z,14.50
2023-01-01T08:12:33.161Z,14.50
2023-01-01T08:14:59.708Z,14.50
2023-01-01T08:17:26.235Z,14.60
2023-01-01T08:19:53.012Z,14.60
2023-01-01T08:22:19.686Z,14.60
2023-01-01T08:24:46.355Z,14.60
2023-01-01T08:27:16.493Z,14.60
2023-01-01T08:29:43.774Z,14.60
2023-01-01T08:32:10.913Z,14.60
2023-01-01T08:34:37.580Z,14.60
2023-01-01T08:37:04.239Z,14.50
2023-01-01T08:39:31.192Z,14.50
2023-01-01T08:41:57.822Z,14.50
2023-01-01T08:44:24.468Z,14.50
2023-01-01T08:46:52.835Z,14.40
2023-01-01T08:49:19.677Z,14.50
2023-01-01T08:51:46.318Z,14.50
2023-01-01T08:54:12.968Z,14.50
2023-01-01T08:56:39.623Z,14.40
2023-01-01T08:59:06.357Z,14.40
2023-01-01T09:01:33.411Z,14.40
2023-01-01T09:04:00.162Z,14.40
2023-01-01T09:06:29.108Z,14.40
2023-01-01T09:08:56.765Z,14.50
2023-01-01T09:11:30.439Z,14.50
2023-01-01T09:13:57.106Z,14.50
2023-01-01T09:16:26.518Z,14.50
2023-01-01T09:18:53.195Z,14.50
2023-01-01T09:21:19.930Z,14.60
2023-01-01T09:23:46.666Z,14.60
2023-01-01T09:26:14.502Z,14.60
2023-01-01T09:28:43.782Z,14.60
2023-01-01T09:31:12.463Z,14.50
2023-01-01T09:33:39.488Z,14.50
2023-01-01T09:36:15.473Z,14.50
2023-01-01T09:38:42.141Z,14.50
2023-01-01T09:41:08.756Z,14.50
2023-01-01T09:43:44.786Z,14.50
2023-01-01T09:46:11.932Z,14.50
2023-01-01T09:48:41.502Z,14.50
2023-01-01T09:51:13.708Z,14.60
2023-01-01T09:53:40.402Z,14.60
2023-01-01T09:56:13.164Z,14.60
2023-01-01T09:58:39.788Z,14.60
2023-01-01T10:01:15.787Z,14.60
2023-01-01T10:03:49.138Z,14.60
2023-01-01T10:06:30.010Z,14.60
2023-01-01T10:09:07.524Z,14.70
2023-01-01T10:11:42.615Z,14.70
2023-01-01T10:14:18.957Z,14.70
2023-01-01T10:16:49.386Z,14.80
2023-01-01T10:19:31.828Z,14.70
2023-01-01T10:22:02.983Z,14.70
2023-01-01T10:24:32.361Z,14.70
2023-01-01T10:26:59.738Z,14.60
2023-01-01T10:29:36.647Z,14.60
2023-01-01T10:32:17.739Z,14.70
2023-01-01T10:34:46.719Z,14.70
2023-01-01T10:37:14.935Z,14.70
2023-01-01T10:39:42.329Z,14.60
2023-01-01T10:42:10.687Z,14.60
2023-01-01T10:44:37.390Z,14.60
2023-01-01T10:47:09.509Z,14.60
2023-01-01T10:49:53.454Z,14.60
2023-01-01T10:52:22.973Z,14.60
2023-01-01T10:54:52.254Z,14.60
2023-01-01T10:57:29.520Z,14.60
2023-01-01T11:00:08.793Z,14.60
2023-01-01T11:02:35.586Z,14.60
2023-01-01T11:05:21.491Z,14.60
2023-01-01T11:07:49.740Z,14.70
2023-01-01T11:10:34.292Z,14.70
2023-01-01T11:13:05.542Z,14.70
2023-01-01T11:15:39.547Z,14.70
2023-01-01T11:18:07.584Z,14.70
2023-01-01T11:20:34.602Z,14.70
2023-01-01T11:23:19.882Z,14.70
2023-01-01T11:26:05.582Z,14.70
2023-01-01T11:28:34.830Z,14.70
2023-01-01T11:31:03.332Z,14.70
2023-01-01T11:33:31.226Z,14.70
2023-01-01T11:35:58.065Z,14.70
2023-01-01T11:38:29.845Z,14.60
2023-01-01T11:41:01.010Z,14.70
2023-01-01T11:43:31.081Z,14.60
2023-01-01T11:45:58.508Z,14.60
2023-01-01T11:50:58.920Z,14.60
2023-01-01T11:53:25.803Z,14.70
2023-01-01T11:55:54.653Z,14.60
2023-01-01T11:58:47.649Z,14.60
2023-01-01T12:01:19.615Z,14.60
2023-01-01T12:03:53.648Z,14.60
2023-01-01T12:06:28.509Z,14.70
2023-01-01T12:08:58.189Z,14.70
2023-01-01T12:11:40.136Z,14.70
2023-01-01T12:14:30.927Z,14.70
2023-01-01T12:17:02.202Z,14.70
2023-01-01T12:19:40.156Z,14.70
2023-01-01T12:22:15.792Z,14.70
2023-01-01T12:24:42.993Z,14.70
2023-01-01T12:27:22.918Z,14.80
2023-01-01T12:30:07.784Z,14.70
2023-01-01T12:32:40.293Z,14.70
2023-01-01T12:35:06.976Z,14.70
2023-01-01T12:37:41.002Z,14.70
2023-01-01T12:40:26.122Z,14.80
2023-01-01T12:42:55.099Z,14.80
2023-01-01T12:45:34.323Z,14.80
2023-01-01T12:48:19.439Z,14.80
2023-01-01T12:50:59.866Z,14.80
2023-01-01T12:53:51.070Z,14.80
2023-01-01T12:56:29.133Z,14.80
2023-01-01T12:59:17.040Z,14.90
2023-01-01T13:01:44.152Z,14.90
2023-01-01T13:04:12.580Z,14.90
2023-01-01T13:07:03.622Z,14.90
2023-01-01T13:09:39.411Z,14.90
2023-01-01T13:12:06.193Z,14.90
2023-01-01T13:14:42.891Z,14.90
2023-01-01T13:17:20.277Z,14.90
2023-01-01T13:19:49.644Z,14.90
2023-01-01T13:22:35.703Z,14.90
2023-01-01T13:25:05.430Z,14.90
2023-01-01T13:27:50.801Z,14.90
2023-01-01T13:30:43.621Z,14.80
2023-01-01T13:33:21.526Z,14.80
2023-01-01T13:36:13.182Z,14.80
2023-01-01T13:38:46.017Z,14.70
2023-01-01T13:41:27.864Z,14.70
2023-01-01T13:44:11.111Z,14.70
2023-01-01T13:46:53.634Z,14.70
2023-01-01T13:49:26.220Z,14.70
2023-01-01T13:52:05.228Z,14.70
2023-01-01T13:54:37.077Z,14.80
2023-01-01T13:57:22.163Z,14.80
2023-01-01T14:00:07.235Z,14.80
2023-01-01T14:02:40.840Z,14.80
2023-01-01T14:05:24.814Z,14.80
2023-01-01T14:07:55.293Z,14.80
2023-01-01T14:10:21.879Z,14.80
2023-01-01T14:12:48.911Z,14.80
2023-01-01T14:15:22.462Z,14.80
2023-01-01T14:17:49.395Z,14.70
2023-01-01T14:20:18.273Z,14.70
2023-01-01T14:22:51.810Z,14.70
2023-01-01T14:25:24.838Z,14.70
2023-01-01T14:27:52.772Z,14.70
2023-01-01T14:30:21.469Z,14.70
2023-01-01T14:33:00.415Z,14.70
2023-01-01T14:35:27.218Z,14.70
2023-01-01T14:37:54.096Z,14.70
2023-01-01T14:40:30.159Z,14.70
2023-01-01T14:43:07.732Z,14.70
2023-01-01T14:45:35.689Z,14.70
2023-01-01T14:48:03.867Z,14.60
2023-01-01T14:50:35.788Z,14.60
2023-01-01T14:53:04.989Z,14.60
2023-01-01T14:55:38.095Z,14.60
2023-01-01T14:58:05.281Z,14.60
2023-01-01T15:00:35.285Z,14.60
2023-01-01T15:03:07.906Z,14.60
2023-01-01T15:05:37.158Z,14.50
2023-01-01T15:08:05.554Z,14.50
2023-01-01T15:10:36.953Z,14.50
2023-01-01T15:13:16.450Z,14.50
2023-01-01T15:15:44.326Z,14.50
2023-01-01T15:18:29.832Z,14.50
2023-01-01T15:20:57.480Z,14.50
2023-01-01T15:23:24.084Z,14.50
2023-01-01T15:25:50.709Z,14.50
2023-01-01T15:28:19.986Z,14.40
2023-01-01T15:30:52.927Z,14.50
2023-01-01T15:33:19.777Z,14.50
2023-01-01T15:35:48.150Z,14.50
2023-01-01T15:38:18.788Z,14.50
2023-01-01T15:40:53.009Z,14.40
2023-01-01T15:43:26.058Z,14.40
2023-01-01T15:45:58.153Z,14.30
2023-01-01T15:48:32.676Z,14.30
2023-01-01T15:51:04.364Z,14.30
2023-01-01T15:53:39.800Z,14.30
2023-01-01T15:56:12.927Z,14.30
2023-01-01T15:58:41.210Z,14.10
2023-01-01T16:01:13.234Z,14.10
2023-01-01T16:03:40.907Z,14.00
2023-01-01T16:06:08.176Z,14.00
2023-01-01T16:08:37.488Z,13.90
2023-01-01T16:11:04.228Z,13.80
2023-01-01T16:13:33.645Z,13.80
2023-01-01T16:16:01.454Z,13.70
2023-01-01T16:18:29.251Z,13.60
2023-01-01T16:20:57.434Z,13.50
2023-01-01T16:23:24.155Z,13.40
2023-01-01T16:25:50.800Z,13.40
2023-01-01T16:28:17.460Z,13.30
2023-01-01T16:30:50.770Z,13.20
2023-01-01T16:33:19.505Z,13.20
2023-01-01T16:35:49.126Z,13.20
2023-01-01T16:38:16.116Z,13.10
2023-01-01T16:40:42.838Z,13.10
2023-01-01T16:43:20.094Z,13.10
2023-01-01T16:45:50.114Z,13.10
2023-01-01T16:48:16.819Z,13.10
2023-01-01T16:50:43.534Z,13.10
2023-01-01T16:53:12.569Z,13.20
2023-01-01T16:55:39.306Z,13.10
2023-01-01T16:58:47.428Z,13.20
2023-01-01T17:01:00.957Z,13.20
2023-01-01T17:03:27.973Z,13.30
2023-01-01T17:05:54.667Z,13.30
2023-01-01T17:08:21.543Z,13.30
2023-01-01T17:10:56.208Z,13.30
2023-01-01T17:13:26.964Z,13.30
2023-01-01T17:15:57.355Z,13.30
2023-01-01T17:18:55.146Z,13.30
2023-01-01T17:21:11.697Z,13.30
2023-01-01T17:23:39.714Z,13.30
2023-01-01T17:26:10.616Z,13.20
2023-01-01T17:28:37.281Z,13.20
2023-01-01T17:31:08.875Z,13.10
2023-01-01T17:33:35.938Z,13.00
2023-01-01T17:36:02.711Z,13.00
2023-01-01T17:38:31.936Z,13.00
2023-01-01T17:41:08.411Z,12.90
2023-01-01T17:43:39.167Z,12.90
2023-01-01T17:48:47.213Z,12.80
2023-01-01T17:51:14.597Z,12.60
2023-01-01T17:53:41.329Z,12.50
2023-01-01T17:56:09.650Z,12.40
2023-01-01T17:58:38.423Z,12.20
2023-01-01T18:01:27.970Z,12.20
2023-01-01T18:04:05.343Z,12.10
2023-01-01T18:06:35.962Z,12.00
2023-01-01T18:09:09.606Z,12.00
2023-01-01T18:11:36.255Z,12.00
2023-01-01T18:14:06.067Z,11.90
2023-01-01T18:16:38.379Z,11.90
2023-01-01T18:19:07.496Z,11.90
2023-01-01T18:21:34.230Z,11.90
2023-01-01T18:24:02.077Z,11.80
2023-01-01T18:26:30.015Z,11.90
2023-01-01T18:29:00.549Z,11.80
2023-01-01T18:31:30.210Z,11.80
2023-01-01T18:34:11.844Z,11.70
2023-01-01T18:36:49.790Z,11.70
2023-01-01T18:39:21.184Z,11.70
2023-01-01T18:42:02.342Z,11.70
2023-01-01T18:44:32.278Z,11.80
2023-01-01T18:47:08.505Z,11.90
2023-01-01T18:52:37.341Z,11.90
2023-01-01T18:55:12.082Z,11.90
2023-01-01T18:57:39.561Z,11.90
2023-01-01T19:00:26.031Z,11.90
2023-01-01T19:03:03.185Z,11.90
2023-01-01T19:05:29.855Z,11.80
2023-01-01T19:08:04.827Z,11.90
2023-01-01T19:10:56.310Z,11.90
2023-01-01T19:13:34.445Z,11.90
2023-01-01T19:16:24.635Z,11.90
2023-01-01T19:18:51.705Z,12.00
2023-01-01T19:21:24.521Z,12.00
2023-01-01T19:23:52.261Z,12.10
2023-01-01T19:26:29.087Z,12.10
2023-01-01T19:28:56.824Z,12.20
2023-01-01T19:31:23.709Z,12.20
2023-01-01T19:33:50.339Z,12.30
2023-01-01T19:36:16.921Z,12.30
2023-01-01T19:38:44.089Z,12.30
2023-01-01T19:41:10.708Z,12.30
2023-01-01T19:43:37.871Z,12.40
2023-01-01T19:46:04.661Z,12.40
2023-01-01T19:48:31.262Z,12.40
2023-01-01T19:50:59.112Z,12.40
2023-01-01T19:53:32.225Z,12.40
2023-01-01T19:56:01.469Z,12.40
2023-01-01T19:58:28.158Z,12.40
2023-01-01T20:00:55.077Z,12.40
2023-01-01T20:06:11.107Z,12.40
2023-01-01T20:08:38.298Z,12.40
2023-01-01T20:11:07.724Z,12.50
2023-01-01T20:13:34.683Z,12.60
2023-01-01T20:16:02.954Z,12.70
2023-01-01T20:18:31.834Z,12.70
2023-01-01T20:21:25.519Z,12.70
2023-01-01T20:23:54.771Z,12.70
2023-01-01T20:26:23.601Z,12.80
2023-01-01T20:29:12.352Z,12.70
2023-01-01T20:31:39.129Z,12.80
2023-01-01T20:34:13.358Z,12.70
2023-01-01T20:36:58.562Z,12.80
2023-01-01T20:39:27.056Z,12.80
2023-01-01T20:41:56.023Z,12.80
2023-01-01T20:44:37.651Z,12.90
2023-01-01T20:47:04.279Z,12.90
2023-01-01T20:49:30.972Z,12.90
2023-01-01T20:51:57.508Z,12.90
2023-01-01T20:54:24.118Z,13.00
2023-01-01T20:56:51.065Z,13.10
2023-01-01T20:59:34.837Z,13.10
2023-01-01T21:02:02.561Z,13.10
2023-01-01T21:04:29.207Z,13.30
2023-01-01T21:06:55.669Z,13.30
2023-01-01T21:09:22.312Z,13.30
2023-01-01T21:11:48.875Z,13.30
2023-01-01T21:14:15.613Z,13.40
2023-01-01T21:16:43.336Z,13.40
2023-01-01T21:19:10.045Z,13.40
2023-01-01T21:21:41.597Z,13.50
2023-01-01T21:24:21.117Z,13.50
2023-01-01T21:26:48.265Z,13.50
2023-01-01T21:29:17.182Z,13.50
2023-01-01T21:31:44.484Z,13.60
2023-01-01T21:34:25.013Z,13.60
2023-01-01T21:36:52.455Z,13.60
2023-01-01T21:39:23.393Z,13.60
2023-01-01T21:41:50.174Z,13.60
2023-01-01T21:44:16.803Z,13.60
2023-01-01T21:46:53.274Z,13.60
2023-01-01T21:49:34.904Z,13.60
2023-01-01T21:52:02.175Z,13.60
2023-01-01T21:54:38.250Z,13.60
2023-01-01T21:57:18.651Z,13.60
2023-01-01T21:59:48.842Z,13.70
2023-01-01T22:02:18.515Z,13.70
2023-01-01T22:04:46.550Z,13.70
2023-01-01T22:07:57.173Z,13.70
2023-01-01T22:10:34.383Z,13.70
2023-01-01T22:13:01.035Z,13.70
2023-01-01T22:15:27.706Z,13.70
2023-01-01T22:18:09.317Z,13.80
2023-01-01T22:20:39.662Z,13.70
2023-01-01T22:23:16.997Z,13.70
2023-01-01T22:25:43.501Z,13.80
2023-01-01T22:28:21.976Z,13.80
2023-01-01T22:30:50.086Z,13.90
2023-01-01T22:33:18.217Z,13.80
2023-01-01T22:35:45.500Z,13.90
2023-01-01T22:38:15.312Z,13.90
2023-01-01T22:40:41.910Z,14.00
2023-01-01T22:43:08.432Z,13.90
2023-01-01T22:45:38.971Z,13.90
2023-01-01T22:48:06.767Z,13.90
2023-01-01T22:50:34.177Z,13.90
2023-01-01T22:53:00.698Z,13.90
2023-01-01T22:55:27.205Z,13.90
2023-01-01T22:57:53.811Z,14.00
2023-01-01T23:00:20.437Z,13.90
2023-01-01T23:02:47.009Z,13.90
2023-01-01T23:05:13.546Z,14.00
2023-01-01T23:07:42.077Z,14.00
2023-01-01T23:10:10.472Z,14.00
2023-01-01T23:12:37.038Z,14.10
2023-01-01T23:15:22.473Z,14.10
2023-01-01T23:17:49.056Z,14.10
2023-01-01T23:20:15.601Z,14.10
2023-01-01T23:22:49.534Z,14.10
2023-01-01T23:25:17.853Z,14.10
2023-01-01T23:27:45.652Z,14.10
2023-01-01T23:30:14.814Z,14.20
2023-01-01T23:32:41.914Z,14.20
2023-01-01T23:35:09.246Z,14.20
2023-01-01T23:37:36.000Z,14.10
2023-01-01T23:40:05.594Z,14.10
2023-01-01T23:42:41.501Z,14.10
2023-01-01T23:45:08.423Z,14.20
2023-01-01T23:47:42.470Z,14.20
2023-01-01T23:50:11.676Z,14.20
2023-01-01T23:52:40.375Z,14.20
2023-01-01T23:55:07.292Z,14.20
2023-01-01T23:57:33.934Z,14.20
